createdAt,value
2019-05-02T00:01:31.020Z,83.10
2019-05-02T00:04:01.012Z,83.30
2019-05-02T00:06:31.442Z,83.40
2019-05-02T00:09:03.934Z,83.60
2019-05-02T00:11:35.548Z,83.80
2019-05-02T00:14:06.042Z,83.80
2019-05-02T00:16:36.062Z,84.00
2019-05-02T00:19:09.220Z,85.00
2019-05-02T00:21:40.755Z,84.30
2019-05-02T00:24:10.981Z,84.40
2019-05-02T00:26:40.854Z,84.50
2019-05-02T00:29:10.928Z,84.40
2019-05-02T00:31:41.950Z,84.50
2019-05-02T00:34:12.568Z,84.70
2019-05-02T00:36:42.524Z,84.50
2019-05-02T00:39:13.890Z,84.70
2019-05-02T00:41:44.057Z,85.30
2019-05-02T00:44:14.001Z,85.10
2019-05-02T00:46:43.878Z,84.90
2019-05-02T00:49:15.403Z,85.00
2019-05-02T00:51:45.431Z,85.30
2019-05-02T00:54:19.258Z,85.30
2019-05-02T00:56:48.390Z,85.90
2019-05-02T00:59:18.332Z,85.70
2019-05-02T01:01:52.533Z,85.70
2019-05-02T01:04:27.455Z,86.70
2019-05-02T01:06:55.665Z,86.90
2019-05-02T01:09:25.599Z,86.70
2019-05-02T01:11:55.522Z,86.50
2019-05-02T01:14:27.251Z,87.30
2019-05-02T01:16:56.939Z,87.70
2019-05-02T01:19:26.873Z,87.20
2019-05-02T01:21:56.791Z,87.10
2019-05-02T01:24:26.779Z,87.40
2019-05-02T01:27:04.539Z,87.40
2019-05-02T01:29:46.536Z,87.00
2019-05-02T01:32:31.326Z,87.10
2019-05-02T01:35:03.012Z,87.60
2019-05-02T01:37:34.495Z,87.80
2019-05-02T01:40:07.205Z,88.00
2019-05-02T01:42:40.069Z,87.50
2019-05-02T01:45:11.161Z,87.80
2019-05-02T01:47:40.862Z,87.80
2019-05-02T01:50:11.055Z,87.80
2019-05-02T01:52:41.062Z,88.00
2019-05-02T01:55:11.251Z,88.10
2019-05-02T01:57:44.839Z,88.20
2019-05-02T02:00:13.686Z,87.70
2019-05-02T02:02:43.632Z,87.30
2019-05-02T02:05:13.622Z,87.00
2019-05-02T02:07:43.560Z,87.20
2019-05-02T02:10:15.096Z,87.80
2019-05-02T02:13:02.709Z,87.80
2019-05-02T02:15:16.845Z,88.50
2019-05-02T02:17:46.967Z,88.80
2019-05-02T02:20:19.896Z,88.50
2019-05-02T02:23:00.661Z,88.80
2019-05-02T02:25:37.845Z,88.40
2019-05-02T02:28:07.782Z,88.70
2019-05-02T02:30:37.757Z,88.70
2019-05-02T02:33:09.409Z,89.40
2019-05-02T02:35:49.547Z,89.40
2019-05-02T02:38:10.880Z,89.10
2019-05-02T02:40:40.741Z,88.90
2019-05-02T02:43:32.163Z,88.50
2019-05-02T02:46:01.206Z,89.10
2019-05-02T02:48:33.727Z,89.20
2019-05-02T02:51:03.469Z,89.00
2019-05-02T02:53:33.407Z,89.00
2019-05-02T02:56:06.073Z,89.40
2019-05-02T02:58:45.832Z,89.70
2019-05-02T03:01:07.948Z,89.60
2019-05-02T03:03:37.899Z,89.60
2019-05-02T03:06:08.514Z,89.60
2019-05-02T03:08:46.389Z,90.00
2019-05-02T03:11:22.371Z,89.50
2019-05-02T03:13:53.482Z,89.70
2019-05-02T03:16:25.034Z,89.30
2019-05-02T03:18:54.899Z,89.90
2019-05-02T03:21:24.787Z,89.60
2019-05-02T03:24:03.442Z,89.50
2019-05-02T03:26:26.863Z,89.60
2019-05-02T03:28:58.744Z,89.40
2019-05-02T03:31:30.871Z,90.10
2019-05-02T03:34:00.988Z,89.60
2019-05-02T03:36:36.037Z,89.30
2019-05-02T03:39:13.323Z,89.40
2019-05-02T03:41:35.995Z,89.50
2019-05-02T03:44:11.144Z,89.60
2019-05-02T03:46:37.485Z,90.00
2019-05-02T03:49:09.756Z,89.80
2019-05-02T03:51:39.358Z,89.90
2019-05-02T03:54:10.418Z,90.10
2019-05-02T03:56:44.795Z,90.10
2019-05-02T03:59:12.148Z,90.10
2019-05-02T04:01:43.172Z,90.40
2019-05-02T04:04:20.563Z,90.10
2019-05-02T04:06:47.280Z,89.60
2019-05-02T04:09:32.041Z,89.40
2019-05-02T04:12:04.240Z,89.30
2019-05-02T04:14:38.938Z,89.40
2019-05-02T04:17:09.560Z,89.00
2019-05-02T04:19:40.450Z,88.90
2019-05-02T04:22:11.889Z,88.90
2019-05-02T04:24:47.932Z,88.50
2019-05-02T04:27:14.418Z,88.20
2019-05-02T04:29:44.337Z,87.60
2019-05-02T04:32:14.754Z,86.30
2019-05-02T04:34:48.868Z,84.60
2019-05-02T04:37:16.312Z,82.70
2019-05-02T04:39:49.104Z,80.90
2019-05-02T04:42:22.966Z,79.80
2019-05-02T04:45:11.760Z,78.50
2019-05-02T04:47:22.373Z,76.50
2019-05-02T04:49:57.968Z,74.40
2019-05-02T04:52:28.795Z,72.30
2019-05-02T04:55:08.011Z,69.40
2019-05-02T04:57:36.839Z,67.20
2019-05-02T05:00:10.495Z,65.10
2019-05-02T05:02:36.765Z,63.10
2019-05-02T05:05:08.330Z,61.30
2019-05-02T05:07:43.706Z,59.50
2019-05-02T05:10:11.516Z,58.60
2019-05-02T05:12:41.937Z,55.90
2019-05-02T05:15:13.356Z,53.70
2019-05-02T05:17:43.589Z,51.90
2019-05-02T05:20:15.608Z,50.00
2019-05-02T05:22:45.963Z,47.80
2019-05-02T05:25:33.733Z,46.50
2019-05-02T05:28:06.123Z,45.50
2019-05-02T05:30:37.590Z,44.30
2019-05-02T05:33:09.925Z,43.00
2019-05-02T05:35:38.628Z,42.90
2019-05-02T05:38:08.627Z,42.00
2019-05-02T05:40:38.559Z,41.60
2019-05-02T05:43:14.584Z,41.80
2019-05-02T05:45:50.689Z,42.50
2019-05-02T05:48:13.827Z,42.70
2019-05-02T05:50:43.204Z,42.80
2019-05-02T05:53:17.204Z,40.70
2019-05-02T05:55:44.648Z,40.90
2019-05-02T05:58:18.197Z,38.60
2019-05-02T06:00:53.832Z,39.40
2019-05-02T06:03:18.715Z,40.50
2019-05-02T06:05:48.588Z,40.10
2019-05-02T06:08:20.019Z,38.80
2019-05-02T06:10:50.894Z,38.30
2019-05-02T06:13:21.929Z,38.70
2019-05-02T06:16:02.246Z,40.20
2019-05-02T06:18:23.464Z,39.90
2019-05-02T06:20:53.325Z,40.90
2019-05-02T06:23:23.278Z,40.80
2019-05-02T06:25:53.150Z,41.60
2019-05-02T06:28:23.101Z,42.20
2019-05-02T06:30:53.055Z,41.60
2019-05-02T06:33:25.967Z,42.40
2019-05-02T06:36:00.851Z,42.50
2019-05-02T06:38:26.207Z,42.40
2019-05-02T06:40:56.341Z,43.40
2019-05-02T06:43:26.283Z,42.50
2019-05-02T06:45:56.148Z,42.70
2019-05-02T06:48:26.156Z,43.70
2019-05-02T06:50:56.996Z,43.70
2019-05-02T06:53:26.875Z,44.90
2019-05-02T06:55:56.803Z,45.60
2019-05-02T06:58:26.659Z,46.70
2019-05-02T07:00:58.980Z,48.10
2019-05-02T07:03:29.279Z,48.80
2019-05-02T07:06:02.844Z,49.40
2019-05-02T07:08:30.843Z,50.00
2019-05-02T07:11:03.000Z,50.30
2019-05-02T07:13:36.306Z,50.70
2019-05-02T07:16:10.399Z,50.90
2019-05-02T07:18:42.095Z,51.30
2019-05-02T07:21:12.215Z,50.80
2019-05-02T07:23:43.270Z,50.90
2019-05-02T07:26:15.404Z,50.80
2019-05-02T07:28:45.716Z,52.20
2019-05-02T07:31:16.700Z,53.00
2019-05-02T07:33:46.677Z,52.50
2019-05-02T07:36:16.633Z,52.20
2019-05-02T07:38:46.572Z,51.90
2019-05-02T07:41:16.502Z,51.10
2019-05-02T07:43:47.502Z,51.10
2019-05-02T07:46:21.019Z,50.60
2019-05-02T07:48:54.668Z,48.70
2019-05-02T07:51:21.259Z,48.50
2019-05-02T07:53:55.239Z,48.80
2019-05-02T07:56:23.836Z,48.40
2019-05-02T07:58:54.549Z,47.80
2019-05-02T08:01:24.562Z,46.60
2019-05-02T08:03:54.486Z,46.30
2019-05-02T08:06:34.926Z,46.70
2019-05-02T08:08:55.987Z,46.20
2019-05-02T08:11:26.212Z,46.90
2019-05-02T08:14:00.302Z,44.50
2019-05-02T08:16:28.729Z,45.80
2019-05-02T08:19:01.388Z,43.40
2019-05-02T08:21:32.481Z,43.40
2019-05-02T08:24:03.502Z,43.70
2019-05-02T08:26:43.997Z,44.10
2019-05-02T08:29:14.109Z,44.60
2019-05-02T08:31:44.042Z,44.00
2019-05-02T08:34:15.910Z,42.80
2019-05-02T08:36:45.580Z,43.00
2019-05-02T08:39:15.463Z,43.50
2019-05-02T08:41:45.400Z,44.70
2019-05-02T08:44:16.773Z,44.10
2019-05-02T08:46:51.377Z,44.10
2019-05-02T08:49:19.985Z,43.80
2019-05-02T08:51:51.113Z,44.50
2019-05-02T08:54:21.042Z,44.10
2019-05-02T08:56:53.230Z,43.90
2019-05-02T08:59:24.504Z,43.70
2019-05-02T09:01:54.057Z,43.90
2019-05-02T09:04:28.485Z,44.10
2019-05-02T09:06:58.743Z,43.80
2019-05-02T09:09:28.028Z,43.30
2019-05-02T09:12:11.390Z,43.20
2019-05-02T09:14:32.072Z,41.90
2019-05-02T09:17:08.888Z,42.00
2019-05-02T09:19:34.833Z,41.90
2019-05-02T09:22:07.715Z,41.30
2019-05-02T09:24:36.691Z,40.20
2019-05-02T09:27:06.792Z,40.40
2019-05-02T09:29:37.426Z,39.80
2019-05-02T09:32:08.321Z,39.50
2019-05-02T09:34:38.284Z,38.70
2019-05-02T09:37:08.163Z,37.50
2019-05-02T09:39:38.023Z,37.10
2019-05-02T09:42:12.171Z,36.40
2019-05-02T09:44:39.829Z,36.00
2019-05-02T09:47:12.842Z,35.00
2019-05-02T09:49:48.880Z,34.50
2019-05-02T09:52:14.456Z,34.40
2019-05-02T09:54:46.148Z,35.40
2019-05-02T09:57:15.954Z,35.90
2019-05-02T09:59:50.600Z,35.60
2019-05-02T10:02:18.444Z,35.20
2019-05-02T10:04:48.323Z,35.20
2019-05-02T10:07:19.419Z,35.60
2019-05-02T10:09:49.355Z,35.50
2019-05-02T10:12:19.213Z,33.00
2019-05-02T10:14:49.240Z,30.70
2019-05-02T10:17:19.238Z,29.60
2019-05-02T10:19:54.975Z,30.80
2019-05-02T10:22:22.819Z,31.90
2019-05-02T10:24:52.641Z,32.40
2019-05-02T10:27:22.560Z,34.60
2019-05-02T10:29:52.602Z,34.10
2019-05-02T10:32:22.702Z,32.30
2019-05-02T10:34:56.707Z,28.50
2019-05-02T10:37:24.223Z,27.60
2019-05-02T10:39:55.821Z,26.30
2019-05-02T10:42:25.884Z,25.40
2019-05-02T10:44:55.777Z,23.50
2019-05-02T10:47:25.734Z,22.80
2019-05-02T10:49:57.331Z,23.00
2019-05-02T10:52:34.012Z,23.80
2019-05-02T10:54:58.916Z,28.20
2019-05-02T10:57:28.855Z,29.60
2019-05-02T10:59:58.806Z,30.00
2019-05-02T11:02:41.985Z,28.20
2019-05-02T11:05:16.932Z,27.50
2019-05-02T11:07:45.247Z,26.00
2019-05-02T11:10:16.348Z,25.10
2019-05-02T11:13:03.043Z,25.30
2019-05-02T11:15:46.825Z,25.20
2019-05-02T11:18:18.662Z,25.80
2019-05-02T11:20:48.583Z,27.70
2019-05-02T11:23:18.477Z,28.80
2019-05-02T11:25:48.428Z,28.40
2019-05-02T11:28:18.488Z,27.00
2019-05-02T11:30:48.627Z,27.60
2019-05-02T11:33:18.614Z,28.40
2019-05-02T11:35:50.799Z,30.00
2019-05-02T11:38:35.856Z,30.60
2019-05-02T11:40:52.140Z,31.70
2019-05-02T11:43:22.424Z,32.70
2019-05-02T11:45:54.163Z,33.90
2019-05-02T11:48:23.920Z,33.70
2019-05-02T11:50:53.897Z,32.00
2019-05-02T11:53:28.507Z,31.70
2019-05-02T11:55:58.245Z,32.60
2019-05-02T11:58:26.975Z,33.80
2019-05-02T12:00:56.927Z,36.00
2019-05-02T12:03:37.100Z,36.70
2019-05-02T12:06:12.292Z,36.30
2019-05-02T12:08:39.373Z,35.80
2019-05-02T12:11:13.948Z,32.90
2019-05-02T12:13:42.754Z,30.00
2019-05-02T12:16:14.190Z,29.70
2019-05-02T12:18:44.125Z,29.20
2019-05-02T12:21:14.143Z,29.00
2019-05-02T12:23:45.076Z,27.00
2019-05-02T12:26:15.083Z,27.00
2019-05-02T12:28:45.024Z,26.40
2019-05-02T12:31:27.107Z,26.80
2019-05-02T12:33:57.855Z,26.30
2019-05-02T12:36:27.788Z,25.30
2019-05-02T12:38:57.743Z,25.80
2019-05-02T12:41:27.706Z,24.70
2019-05-02T12:43:57.592Z,26.70
2019-05-02T12:46:28.542Z,27.90
2019-05-02T12:48:58.601Z,28.70
2019-05-02T12:51:28.517Z,29.20
2019-05-02T12:53:58.458Z,29.70
2019-05-02T12:56:28.401Z,30.00
2019-05-02T12:58:58.259Z,30.40
2019-05-02T13:01:28.212Z,30.80
2019-05-02T13:03:59.796Z,30.50
2019-05-02T13:06:29.750Z,29.60
2019-05-02T13:08:59.699Z,27.70
2019-05-02T13:11:32.140Z,28.00
2019-05-02T13:14:03.952Z,27.20
2019-05-02T13:16:33.992Z,26.20
2019-05-02T13:19:06.167Z,26.80
2019-05-02T13:21:42.383Z,27.60
2019-05-02T13:24:16.434Z,28.60
2019-05-02T13:26:46.884Z,29.70
2019-05-02T13:29:16.964Z,31.10
2019-05-02T13:32:01.678Z,32.00
2019-05-02T13:34:33.324Z,31.40
2019-05-02T13:37:03.836Z,30.60
2019-05-02T13:39:38.201Z,30.90
2019-05-02T13:42:08.824Z,32.20
2019-05-02T13:44:42.913Z,32.90
2019-05-02T13:47:14.488Z,33.40
2019-05-02T13:49:53.622Z,33.30
2019-05-02T13:52:15.952Z,33.60
2019-05-02T13:54:46.378Z,34.40
2019-05-02T13:57:16.298Z,34.80
2019-05-02T13:59:47.339Z,35.50
2019-05-02T14:02:37.092Z,36.00
2019-05-02T14:05:09.552Z,35.90
2019-05-02T14:07:42.933Z,36.10
2019-05-02T14:10:18.805Z,36.60
2019-05-02T14:12:59.447Z,37.80
2019-05-02T14:15:32.393Z,37.80
2019-05-02T14:18:03.633Z,38.30
2019-05-02T14:20:33.762Z,37.70
2019-05-02T14:23:03.743Z,37.40
2019-05-02T14:25:33.603Z,37.30
2019-05-02T14:28:03.531Z,37.50
2019-05-02T14:30:39.377Z,37.90
2019-05-02T14:33:07.317Z,37.30
2019-05-02T14:35:37.938Z,36.90
2019-05-02T14:38:09.899Z,37.10
2019-05-02T14:40:51.975Z,37.30
2019-05-02T14:43:44.475Z,37.10
2019-05-02T14:46:12.662Z,37.30
2019-05-02T14:48:45.147Z,37.70
2019-05-02T14:51:21.989Z,37.50
2019-05-02T14:53:48.341Z,37.70
2019-05-02T14:56:23.009Z,38.70
2019-05-02T14:58:53.000Z,40.00
2019-05-02T15:01:26.151Z,40.60
2019-05-02T15:03:58.280Z,40.50
2019-05-02T15:06:27.134Z,40.10
2019-05-02T15:08:57.153Z,39.30
2019-05-02T15:11:30.953Z,39.90
2019-05-02T15:13:58.654Z,39.70
2019-05-02T15:16:39.540Z,39.70
2019-05-02T15:19:02.004Z,39.30
2019-05-02T15:21:47.027Z,40.40
2019-05-02T15:24:15.522Z,40.70
2019-05-02T15:26:45.455Z,40.70
2019-05-02T15:29:19.826Z,40.80
2019-05-02T15:31:57.868Z,40.40
2019-05-02T15:34:36.979Z,39.80
2019-05-02T15:37:04.954Z,40.00
2019-05-02T15:42:06.496Z,41.20
2019-05-02T15:44:36.546Z,41.10
2019-05-02T15:47:07.062Z,41.10
2019-05-02T15:49:50.161Z,40.50
2019-05-02T15:52:24.214Z,40.60
2019-05-02T15:54:59.811Z,40.70
2019-05-02T15:57:24.931Z,41.00
2019-05-02T15:59:55.285Z,41.20
2019-05-02T16:02:26.887Z,41.40
2019-05-02T16:05:01.376Z,41.60
2019-05-02T16:07:28.509Z,41.60
2019-05-02T16:10:01.147Z,41.60
2019-05-02T16:12:32.158Z,42.00
2019-05-02T16:15:25.820Z,41.90
2019-05-02T16:17:56.736Z,42.00
2019-05-02T16:20:40.417Z,42.00
2019-05-02T16:23:07.535Z,41.10
2019-05-02T16:25:37.479Z,40.50
2019-05-02T16:28:12.614Z,39.60
2019-05-02T16:30:47.652Z,40.20
2019-05-02T16:33:19.716Z,40.70
2019-05-02T16:35:52.911Z,41.20
2019-05-02T16:38:19.657Z,41.60
2019-05-02T16:40:49.620Z,41.50
2019-05-02T16:43:19.550Z,41.60
2019-05-02T16:45:49.488Z,42.00
2019-05-02T16:48:19.437Z,42.00
2019-05-02T16:50:49.642Z,42.10
2019-05-02T16:53:22.620Z,42.40
2019-05-02T16:55:51.243Z,41.60
2019-05-02T16:58:21.303Z,42.00
2019-05-02T17:00:52.806Z,42.40
2019-05-02T17:03:26.429Z,42.90
2019-05-02T17:05:54.688Z,43.60
2019-05-02T17:08:41.860Z,43.90
2019-05-02T17:11:27.787Z,44.20
2019-05-02T17:13:55.061Z,44.50
2019-05-02T17:16:25.025Z,45.00
2019-05-02T17:18:56.566Z,45.30
2019-05-02T17:21:26.901Z,45.80
2019-05-02T17:23:58.428Z,46.30
2019-05-02T17:26:28.336Z,46.90
2019-05-02T17:28:58.264Z,47.30
2019-05-02T17:31:29.123Z,47.90
2019-05-02T17:33:59.062Z,48.40
2019-05-02T17:36:30.626Z,48.70
2019-05-02T17:39:06.804Z,48.60
2019-05-02T17:41:37.102Z,49.00
2019-05-02T17:44:05.697Z,48.90
2019-05-02T17:46:36.677Z,48.90
2019-05-02T17:49:06.865Z,48.60
2019-05-02T17:52:05.013Z,49.50
2019-05-02T17:54:26.695Z,49.40
2019-05-02T17:56:57.397Z,49.30
2019-05-02T17:59:33.025Z,49.80
2019-05-02T18:02:01.865Z,49.20
2019-05-02T18:04:32.507Z,51.90
2019-05-02T18:07:02.588Z,50.60
2019-05-02T18:09:35.036Z,51.50
2019-05-02T18:12:07.176Z,51.40
2019-05-02T18:14:36.487Z,51.20
2019-05-02T18:17:07.444Z,50.80
2019-05-02T18:19:37.618Z,52.00
2019-05-02T18:22:21.123Z,51.50
2019-05-02T18:24:44.782Z,50.00
2019-05-02T18:27:12.923Z,50.80
2019-05-02T18:29:45.691Z,50.10
2019-05-02T18:32:17.632Z,48.80
2019-05-02T18:34:47.293Z,50.80
2019-05-02T18:37:17.254Z,50.10
2019-05-02T18:39:53.360Z,50.10
2019-05-02T18:42:21.925Z,48.80
2019-05-02T18:44:53.098Z,49.70
2019-05-02T18:47:24.812Z,49.50
2019-05-02T18:50:04.357Z,49.60
2019-05-02T18:52:36.320Z,49.60
2019-05-02T18:54:58.901Z,49.20
2019-05-02T18:57:29.634Z,48.50
2019-05-02T18:59:59.621Z,49.10
2019-05-02T19:02:32.740Z,48.50
2019-05-02T19:05:01.937Z,49.30
2019-05-02T19:07:35.383Z,48.90
2019-05-02T19:10:09.093Z,48.20
2019-05-02T19:12:39.020Z,48.90
2019-05-02T19:15:09.231Z,48.60
2019-05-02T19:17:40.515Z,47.70
2019-05-02T19:20:28.934Z,48.20
2019-05-02T19:23:00.262Z,48.10
2019-05-02T19:25:32.136Z,49.40
2019-05-02T19:28:06.619Z,48.20
2019-05-02T19:30:38.993Z,48.60
2019-05-02T19:33:09.434Z,48.60
2019-05-02T19:35:43.159Z,48.90
2019-05-02T19:38:12.280Z,49.00
2019-05-02T19:40:43.604Z,49.50
2019-05-02T19:43:14.864Z,49.60
2019-05-02T19:45:50.380Z,50.10
2019-05-02T19:48:18.652Z,50.30
2019-05-02T19:50:51.705Z,50.40
2019-05-02T19:53:22.893Z,50.90
2019-05-02T19:55:57.247Z,50.70
2019-05-02T19:58:24.667Z,50.70
2019-05-02T20:00:56.673Z,50.50
2019-05-02T20:03:26.697Z,50.60
2019-05-02T20:06:02.398Z,51.00
2019-05-02T20:08:29.440Z,53.40
2019-05-02T20:10:59.693Z,54.10
2019-05-02T20:13:32.544Z,54.70
2019-05-02T20:16:13.274Z,55.70
2019-05-02T20:18:47.144Z,56.40
2019-05-02T20:21:23.161Z,57.20
2019-05-02T20:23:47.978Z,57.80
2019-05-02T20:26:17.990Z,58.20
2019-05-02T20:28:48.410Z,58.90
2019-05-02T20:31:18.272Z,59.60
2019-05-02T20:33:49.067Z,60.30
2019-05-02T20:36:19.255Z,61.70
2019-05-02T20:38:49.554Z,61.30
2019-05-02T20:41:19.419Z,61.20
2019-05-02T20:43:51.694Z,61.90
2019-05-02T20:46:22.065Z,62.30
2019-05-02T20:48:52.543Z,62.90
2019-05-02T20:51:22.895Z,62.90
2019-05-02T20:53:53.881Z,63.60
2019-05-02T20:56:23.826Z,65.00
2019-05-02T20:58:54.801Z,64.70
2019-05-02T21:01:24.915Z,65.20
2019-05-02T21:03:54.866Z,65.90
2019-05-02T21:06:37.649Z,66.50
2019-05-02T21:09:02.048Z,67.10
2019-05-02T21:11:32.914Z,67.70
2019-05-02T21:14:03.097Z,67.90
2019-05-02T21:16:33.087Z,68.00
2019-05-02T21:19:04.188Z,67.90
2019-05-02T21:21:34.951Z,68.30
2019-05-02T21:24:05.165Z,68.20
2019-05-02T21:26:35.186Z,67.90
2019-05-02T21:29:05.186Z,68.10
2019-05-02T21:31:35.188Z,68.60
2019-05-02T21:34:07.274Z,68.50
2019-05-02T21:36:36.753Z,67.60
2019-05-02T21:39:11.761Z,68.20
2019-05-02T21:41:42.370Z,68.50
2019-05-02T21:44:13.160Z,68.80
2019-05-02T21:46:43.324Z,69.20
2019-05-02T21:49:14.872Z,70.00
2019-05-02T21:51:47.077Z,70.00
2019-05-02T21:54:24.125Z,69.80
2019-05-02T21:56:58.096Z,70.30
2019-05-02T21:59:28.040Z,70.30
2019-05-02T22:01:59.672Z,70.40
2019-05-02T22:04:31.650Z,70.60
2019-05-02T22:07:01.262Z,70.80
2019-05-02T22:09:32.495Z,70.60
2019-05-02T22:12:02.566Z,70.70
2019-05-02T22:14:32.946Z,71.90
2019-05-02T22:17:04.187Z,72.70
2019-05-02T22:19:34.188Z,73.40
2019-05-02T22:22:04.195Z,72.90
2019-05-02T22:24:34.060Z,73.10
2019-05-02T22:27:05.737Z,73.60
2019-05-02T22:29:36.198Z,74.30
2019-05-02T22:32:06.118Z,73.50
2019-05-02T22:34:36.040Z,73.70
2019-05-02T22:37:07.674Z,74.40
2019-05-02T22:39:45.195Z,74.20
2019-05-02T22:42:15.322Z,74.70
2019-05-02T22:44:45.176Z,74.80
2019-05-02T22:47:15.069Z,75.20
2019-05-02T22:49:45.008Z,75.70
2019-05-02T22:52:15.637Z,75.60
2019-05-02T22:54:45.504Z,76.10
2019-05-02T22:57:15.436Z,76.30
2019-05-02T22:59:45.313Z,76.90
2019-05-02T23:02:15.248Z,77.00
2019-05-02T23:04:45.207Z,77.30
2019-05-02T23:07:15.153Z,78.00
2019-05-02T23:09:45.095Z,77.70
2019-05-02T23:12:15.999Z,78.00
2019-05-02T23:14:45.875Z,79.10
2019-05-02T23:17:15.812Z,79.80
2019-05-02T23:19:45.773Z,80.00
2019-05-02T23:22:15.705Z,80.80
2019-05-02T23:24:53.330Z,81.10
2019-05-02T23:27:31.725Z,80.90
2019-05-02T23:30:02.859Z,80.60
2019-05-02T23:32:33.616Z,80.30
2019-05-02T23:35:03.901Z,80.30
2019-05-02T23:37:33.771Z,80.00
2019-05-02T23:40:03.700Z,80.00
2019-05-02T23:42:33.590Z,80.30
2019-05-02T23:45:05.988Z,80.50
2019-05-02T23:47:38.089Z,80.70
2019-05-02T23:50:09.277Z,80.90
2019-05-02T23:52:39.810Z,80.20
2019-05-02T23:55:09.877Z,79.90
2019-05-02T23:57:41.855Z,80.20
